Other Surface Observations
Issued by NWS Missoula, MT

Home | Current Version | Previous Version | Text Only | Print | Product List | Glossary On
Versions: 1 2 3 4 5 6 7 8 9 10 11 12 13 14 15 16 17 18 19 20 21 22 23 24 25 26 27 28 29 30 31 32 33 34 35 36 37 38 39 40 41 42 43 44 45 46 47 48 49 50
000
SXUS55 KMSO 271903
OSOMSO
MONTANA AWOS SUMMARY
NATIONAL WEATHER SERVICE MISSOULA MT
1203 PM MST MON APR 27 2015

Montana AWOS Reports

LAUREL      |K6S8 271855Z AUTO 00000KT 40SM 11/02 A3027 RMK AO1 T01110022
TWIN BRIDGES|K7S1 271855Z AUTO 00000KT 40SM 09/M04 A3027 RMK AO1 T00941038
ROUNDUP     |KRPX 271855Z AUTO 00000KT 40SM 12/M02 A3019 RMK AO1 T01221016
MALTA       |KM75 271855Z AUTO 19009G13KT 40SM 14/01 A3023 RMK AO1 T01390011
SCOBEY      |K9S2 271855Z AUTO 26004KT 40SM 13/M01 A3025 RMK AO1 T01281005




USA.gov is the U.S. government's official web portal to all federal, state and local government web resources and services.